sensor_id;sensor_type;location;lat;lon;timestamp;P1;durP1;ratioP1;P2;durP2;ratioP2
30384;SDS011;17181;51.002;4.096;2023-06-24T00:02:09;2.03;;;1.83;;
30384;SDS011;17181;51.002;4.096;2023-06-24T00:04:34;4.93;;;2.70;;
30384;SDS011;17181;51.002;4.096;2023-06-24T00:07:00;3.77;;;2.57;;
30384;SDS011;17181;51.002;4.096;2023-06-24T00:09:29;6.23;;;2.80;;
30384;SDS011;17181;51.002;4.096;2023-06-24T00:11:55;5.73;;;2.70;;
30384;SDS011;17181;51.002;4.096;2023-06-24T00:14:22;2.80;;;2.50;;
30384;SDS011;17181;51.002;4.096;2023-06-24T00:16:54;3.33;;;2.53;;
30384;SDS011;17181;51.002;4.096;2023-06-24T00:19:24;3.87;;;2.73;;
30384;SDS011;17181;51.002;4.096;2023-06-24T00:21:51;3.43;;;2.03;;
30384;SDS011;17181;51.002;4.096;2023-06-24T00:24:18;4.60;;;2.87;;
30384;SDS011;17181;51.002;4.096;2023-06-24T00:26:50;4.13;;;2.97;;
30384;SDS011;17181;51.002;4.096;2023-06-24T00:29:19;7.43;;;2.33;;
30384;SDS011;17181;51.002;4.096;2023-06-24T00:31:45;2.43;;;1.73;;
30384;SDS011;17181;51.002;4.096;2023-06-24T00:34:10;2.67;;;2.27;;
30384;SDS011;17181;51.002;4.096;2023-06-24T00:36:36;5.07;;;2.30;;
30384;SDS011;17181;51.002;4.096;2023-06-24T00:39:03;4.00;;;2.20;;
30384;SDS011;17181;51.002;4.096;2023-06-24T00:41:36;3.67;;;2.47;;
30384;SDS011;17181;51.002;4.096;2023-06-24T00:44:01;3.27;;;2.03;;
30384;SDS011;17181;51.002;4.096;2023-06-24T00:46:27;8.70;;;2.67;;
30384;SDS011;17181;51.002;4.096;2023-06-24T00:48:57;3.50;;;2.50;;
30384;SDS011;17181;51.002;4.096;2023-06-24T00:51:25;3.70;;;2.13;;
30384;SDS011;17181;51.002;4.096;2023-06-24T00:53:52;2.93;;;2.07;;
30384;SDS011;17181;51.002;4.096;2023-06-24T00:56:19;4.13;;;2.53;;
30384;SDS011;17181;51.002;4.096;2023-06-24T00:58:47;16.73;;;3.23;;
30384;SDS011;17181;51.002;4.096;2023-06-24T01:01:13;3.03;;;2.27;;
30384;SDS011;17181;51.002;4.096;2023-06-24T01:03:41;4.60;;;2.70;;
30384;SDS011;17181;51.002;4.096;2023-06-24T01:06:08;4.80;;;2.57;;
30384;SDS011;17181;51.002;4.096;2023-06-24T01:08:35;5.30;;;2.33;;
30384;SDS011;17181;51.002;4.096;2023-06-24T01:11:01;3.93;;;2.43;;
30384;SDS011;17181;51.002;4.096;2023-06-24T01:13:27;2.23;;;2.00;;
30384;SDS011;17181;51.002;4.096;2023-06-24T01:15:53;3.33;;;2.17;;
30384;SDS011;17181;51.002;4.096;2023-06-24T01:21:03;3.07;;;2.23;;
30384;SDS011;17181;51.002;4.096;2023-06-24T01:26:45;5.23;;;2.60;;
30384;SDS011;17181;51.002;4.096;2023-06-24T01:34:37;4.10;;;2.83;;
30384;SDS011;17181;51.002;4.096;2023-06-24T01:39:50;4.97;;;2.83;;
30384;SDS011;17181;51.002;4.096;2023-06-24T01:42:38;6.03;;;2.70;;
30384;SDS011;17181;51.002;4.096;2023-06-24T01:45:06;4.33;;;2.53;;
30384;SDS011;17181;51.002;4.096;2023-06-24T01:47:36;3.10;;;2.27;;
30384;SDS011;17181;51.002;4.096;2023-06-24T01:50:05;3.30;;;2.40;;
30384;SDS011;17181;51.002;4.096;2023-06-24T01:52:34;3.80;;;2.47;;
30384;SDS011;17181;51.002;4.096;2023-06-24T01:55:00;4.17;;;2.23;;
30384;SDS011;17181;51.002;4.096;2023-06-24T01:57:28;8.33;;;2.17;;
30384;SDS011;17181;51.002;4.096;2023-06-24T01:59:57;2.43;;;2.20;;
30384;SDS011;17181;51.002;4.096;2023-06-24T02:02:28;9.97;;;3.13;;
30384;SDS011;17181;51.002;4.096;2023-06-24T02:04:54;3.83;;;2.80;;
30384;SDS011;17181;51.002;4.096;2023-06-24T02:07:21;3.63;;;2.40;;
30384;SDS011;17181;51.002;4.096;2023-06-24T02:09:48;6.33;;;2.80;;
30384;SDS011;17181;51.002;4.096;2023-06-24T02:12:16;4.27;;;2.37;;
30384;SDS011;17181;51.002;4.096;2023-06-24T02:14:44;12.33;;;2.40;;
30384;SDS011;17181;51.002;4.096;2023-06-24T02:17:12;5.53;;;2.77;;
30384;SDS011;17181;51.002;4.096;2023-06-24T02:19:40;3.37;;;2.80;;
30384;SDS011;17181;51.002;4.096;2023-06-24T02:22:07;5.73;;;2.87;;
30384;SDS011;17181;51.002;4.096;2023-06-24T02:24:35;5.47;;;2.80;;
30384;SDS011;17181;51.002;4.096;2023-06-24T02:27:03;6.90;;;2.40;;
30384;SDS011;17181;51.002;4.096;2023-06-24T02:29:30;8.27;;;2.93;;
30384;SDS011;17181;51.002;4.096;2023-06-24T02:31:57;4.30;;;2.57;;
30384;SDS011;17181;51.002;4.096;2023-06-24T02:34:24;8.60;;;3.07;;
30384;SDS011;17181;51.002;4.096;2023-06-24T02:36:50;7.07;;;2.53;;
30384;SDS011;17181;51.002;4.096;2023-06-24T02:39:16;3.37;;;2.40;;
30384;SDS011;17181;51.002;4.096;2023-06-24T02:41:44;5.60;;;2.60;;
30384;SDS011;17181;51.002;4.096;2023-06-24T02:44:13;8.87;;;3.03;;
30384;SDS011;17181;51.002;4.096;2023-06-24T02:46:38;2.80;;;1.93;;
30384;SDS011;17181;51.002;4.096;2023-06-24T02:49:05;3.67;;;2.70;;
30384;SDS011;17181;51.002;4.096;2023-06-24T02:51:33;6.33;;;3.33;;
30384;SDS011;17181;51.002;4.096;2023-06-24T02:54:00;6.83;;;2.50;;
30384;SDS011;17181;51.002;4.096;2023-06-24T02:56:46;4.13;;;2.27;;
30384;SDS011;17181;51.002;4.096;2023-06-24T02:59:20;2.97;;;2.23;;
30384;SDS011;17181;51.002;4.096;2023-06-24T03:01:48;3.77;;;2.93;;
30384;SDS011;17181;51.002;4.096;2023-06-24T03:04:14;11.17;;;3.07;;
30384;SDS011;17181;51.002;4.096;2023-06-24T03:06:40;4.73;;;2.30;;
30384;SDS011;17181;51.002;4.096;2023-06-24T03:09:08;8.63;;;2.77;;
30384;SDS011;17181;51.002;4.096;2023-06-24T03:11:41;4.57;;;2.60;;
30384;SDS011;17181;51.002;4.096;2023-06-24T03:14:10;6.20;;;2.87;;
30384;SDS011;17181;51.002;4.096;2023-06-24T03:16:40;2.93;;;2.27;;
30384;SDS011;17181;51.002;4.096;2023-06-24T03:19:13;4.40;;;3.33;;
30384;SDS011;17181;51.002;4.096;2023-06-24T03:21:40;11.83;;;3.00;;
30384;SDS011;17181;51.002;4.096;2023-06-24T03:24:10;5.37;;;3.10;;
30384;SDS011;17181;51.002;4.096;2023-06-24T03:26:37;6.57;;;3.07;;
30384;SDS011;17181;51.002;4.096;2023-06-24T03:29:07;6.73;;;2.77;;
30384;SDS011;17181;51.002;4.096;2023-06-24T03:31:35;7.27;;;2.87;;
30384;SDS011;17181;51.002;4.096;2023-06-24T03:34:01;8.07;;;3.93;;
30384;SDS011;17181;51.002;4.096;2023-06-24T03:36:27;7.93;;;2.33;;
30384;SDS011;17181;51.002;4.096;2023-06-24T03:38:54;8.87;;;3.40;;
30384;SDS011;17181;51.002;4.096;2023-06-24T03:41:19;4.33;;;2.73;;
30384;SDS011;17181;51.002;4.096;2023-06-24T03:43:46;8.17;;;2.73;;
30384;SDS011;17181;51.002;4.096;2023-06-24T03:46:12;10.07;;;3.57;;
30384;SDS011;17181;51.002;4.096;2023-06-24T03:48:38;4.50;;;2.87;;
30384;SDS011;17181;51.002;4.096;2023-06-24T03:51:04;8.33;;;3.00;;
30384;SDS011;17181;51.002;4.096;2023-06-24T03:53:30;4.37;;;2.50;;
30384;SDS011;17181;51.002;4.096;2023-06-24T03:55:58;3.17;;;2.10;;
30384;SDS011;17181;51.002;4.096;2023-06-24T03:58:25;4.43;;;2.73;;
30384;SDS011;17181;51.002;4.096;2023-06-24T04:00:50;5.40;;;2.93;;
30384;SDS011;17181;51.002;4.096;2023-06-24T04:03:16;8.00;;;3.07;;
30384;SDS011;17181;51.002;4.096;2023-06-24T04:05:45;11.93;;;3.57;;
30384;SDS011;17181;51.002;4.096;2023-06-24T04:08:10;7.90;;;3.40;;
30384;SDS011;17181;51.002;4.096;2023-06-24T04:10:37;5.97;;;2.97;;
30384;SDS011;17181;51.002;4.096;2023-06-24T04:13:03;4.73;;;3.43;;
30384;SDS011;17181;51.002;4.096;2023-06-24T04:15:30;6.17;;;2.83;;
30384;SDS011;17181;51.002;4.096;2023-06-24T04:17:55;4.53;;;2.80;;
30384;SDS011;17181;51.002;4.096;2023-06-24T04:20:21;5.10;;;3.70;;
30384;SDS011;17181;51.002;4.096;2023-06-24T04:22:47;8.97;;;3.33;;
30384;SDS011;17181;51.002;4.096;2023-06-24T04:25:15;8.50;;;3.03;;
30384;SDS011;17181;51.002;4.096;2023-06-24T04:27:41;14.00;;;2.63;;
30384;SDS011;17181;51.002;4.096;2023-06-24T04:30:07;9.53;;;2.97;;
30384;SDS011;17181;51.002;4.096;2023-06-24T04:32:33;4.43;;;2.57;;
30384;SDS011;17181;51.002;4.096;2023-06-24T04:34:59;9.37;;;3.13;;
30384;SDS011;17181;51.002;4.096;2023-06-24T04:37:26;4.37;;;2.87;;
30384;SDS011;17181;51.002;4.096;2023-06-24T04:39:53;7.53;;;2.67;;
30384;SDS011;17181;51.002;4.096;2023-06-24T04:42:18;4.93;;;2.97;;
30384;SDS011;17181;51.002;4.096;2023-06-24T04:44:44;9.53;;;2.53;;
30384;SDS011;17181;51.002;4.096;2023-06-24T04:47:10;3.17;;;2.17;;
30384;SDS011;17181;51.002;4.096;2023-06-24T04:49:38;13.23;;;2.87;;
30384;SDS011;17181;51.002;4.096;2023-06-24T04:52:05;3.10;;;2.50;;
30384;SDS011;17181;51.002;4.096;2023-06-24T04:54:31;10.13;;;3.23;;
30384;SDS011;17181;51.002;4.096;2023-06-24T04:56:57;3.07;;;2.03;;
30384;SDS011;17181;51.002;4.096;2023-06-24T04:59:23;6.73;;;3.17;;
30384;SDS011;17181;51.002;4.096;2023-06-24T05:01:48;6.83;;;3.10;;
30384;SDS011;17181;51.002;4.096;2023-06-24T05:04:14;8.50;;;2.47;;
30384;SDS011;17181;51.002;4.096;2023-06-24T05:06:40;5.47;;;2.33;;
30384;SDS011;17181;51.002;4.096;2023-06-24T05:09:05;3.47;;;2.83;;
30384;SDS011;17181;51.002;4.096;2023-06-24T05:11:31;5.73;;;2.53;;
30384;SDS011;17181;51.002;4.096;2023-06-24T05:13:57;2.93;;;2.17;;
30384;SDS011;17181;51.002;4.096;2023-06-24T05:16:23;3.27;;;2.57;;
30384;SDS011;17181;51.002;4.096;2023-06-24T05:18:49;5.37;;;3.00;;
30384;SDS011;17181;51.002;4.096;2023-06-24T05:21:15;6.37;;;2.60;;
30384;SDS011;17181;51.002;4.096;2023-06-24T05:23:41;5.80;;;3.17;;
30384;SDS011;17181;51.002;4.096;2023-06-24T05:26:07;18.60;;;2.50;;
30384;SDS011;17181;51.002;4.096;2023-06-24T05:28:33;5.27;;;3.03;;
30384;SDS011;17181;51.002;4.096;2023-06-24T05:30:58;2.83;;;2.10;;
30384;SDS011;17181;51.002;4.096;2023-06-24T05:33:24;2.37;;;1.80;;
30384;SDS011;17181;51.002;4.096;2023-06-24T05:35:50;4.13;;;2.40;;
30384;SDS011;17181;51.002;4.096;2023-06-24T05:38:16;9.23;;;3.43;;
30384;SDS011;17181;51.002;4.096;2023-06-24T05:40:42;4.93;;;2.80;;
30384;SDS011;17181;51.002;4.096;2023-06-24T05:43:08;6.90;;;3.37;;
30384;SDS011;17181;51.002;4.096;2023-06-24T05:45:33;3.17;;;2.33;;
30384;SDS011;17181;51.002;4.096;2023-06-24T05:47:59;8.10;;;3.80;;
30384;SDS011;17181;51.002;4.096;2023-06-24T05:50:25;9.70;;;3.13;;
30384;SDS011;17181;51.002;4.096;2023-06-24T05:52:51;5.40;;;2.67;;
30384;SDS011;17181;51.002;4.096;2023-06-24T05:55:17;5.40;;;2.73;;
30384;SDS011;17181;51.002;4.096;2023-06-24T05:57:43;3.70;;;2.67;;
30384;SDS011;17181;51.002;4.096;2023-06-24T06:00:08;9.23;;;3.23;;
30384;SDS011;17181;51.002;4.096;2023-06-24T06:02:41;3.93;;;2.93;;
30384;SDS011;17181;51.002;4.096;2023-06-24T06:05:07;0.30;;;0.30;;
30384;SDS011;17181;51.002;4.096;2023-06-24T06:07:33;5.77;;;2.83;;
30384;SDS011;17181;51.002;4.096;2023-06-24T06:09:59;6.87;;;3.63;;
30384;SDS011;17181;51.002;4.096;2023-06-24T06:12:25;4.03;;;2.87;;
30384;SDS011;17181;51.002;4.096;2023-06-24T06:14:51;3.23;;;2.40;;
30384;SDS011;17181;51.002;4.096;2023-06-24T06:17:17;1.50;;;1.30;;
30384;SDS011;17181;51.002;4.096;2023-06-24T06:19:43;2.67;;;2.43;;
30384;SDS011;17181;51.002;4.096;2023-06-24T06:22:11;5.13;;;2.57;;
30384;SDS011;17181;51.002;4.096;2023-06-24T06:24:38;4.70;;;3.03;;
30384;SDS011;17181;51.002;4.096;2023-06-24T06:27:04;2.87;;;1.63;;
30384;SDS011;17181;51.002;4.096;2023-06-24T06:29:34;3.90;;;2.33;;
30384;SDS011;17181;51.002;4.096;2023-06-24T06:32:00;3.60;;;2.57;;
30384;SDS011;17181;51.002;4.096;2023-06-24T06:34:25;3.77;;;3.07;;
30384;SDS011;17181;51.002;4.096;2023-06-24T06:36:51;4.43;;;2.70;;
30384;SDS011;17181;51.002;4.096;2023-06-24T06:39:17;4.00;;;2.90;;
30384;SDS011;17181;51.002;4.096;2023-06-24T06:41:43;6.43;;;2.93;;
30384;SDS011;17181;51.002;4.096;2023-06-24T06:44:14;6.13;;;3.00;;
30384;SDS011;17181;51.002;4.096;2023-06-24T06:46:40;3.20;;;1.97;;
30384;SDS011;17181;51.002;4.096;2023-06-24T06:49:06;3.93;;;2.80;;
30384;SDS011;17181;51.002;4.096;2023-06-24T06:51:31;3.30;;;2.80;;
30384;SDS011;17181;51.002;4.096;2023-06-24T06:53:57;5.10;;;3.13;;
30384;SDS011;17181;51.002;4.096;2023-06-24T06:56:23;3.30;;;2.20;;
30384;SDS011;17181;51.002;4.096;2023-06-24T06:58:49;4.73;;;1.37;;
30384;SDS011;17181;51.002;4.096;2023-06-24T07:01:16;4.27;;;2.33;;
30384;SDS011;17181;51.002;4.096;2023-06-24T07:03:43;3.03;;;2.43;;
30384;SDS011;17181;51.002;4.096;2023-06-24T07:06:08;3.07;;;1.60;;
30384;SDS011;17181;51.002;4.096;2023-06-24T07:08:34;1.07;;;0.73;;
30384;SDS011;17181;51.002;4.096;2023-06-24T07:11:01;4.00;;;2.60;;
30384;SDS011;17181;51.002;4.096;2023-06-24T07:13:29;4.90;;;2.93;;
30384;SDS011;17181;51.002;4.096;2023-06-24T07:15:55;3.10;;;2.80;;
30384;SDS011;17181;51.002;4.096;2023-06-24T07:18:21;9.17;;;2.97;;
30384;SDS011;17181;51.002;4.096;2023-06-24T07:20:46;3.93;;;2.37;;
30384;SDS011;17181;51.002;4.096;2023-06-24T07:23:12;5.17;;;2.73;;
30384;SDS011;17181;51.002;4.096;2023-06-24T07:25:38;4.33;;;3.60;;
30384;SDS011;17181;51.002;4.096;2023-06-24T07:28:04;5.20;;;3.93;;
30384;SDS011;17181;51.002;4.096;2023-06-24T07:30:29;7.57;;;2.60;;
30384;SDS011;17181;51.002;4.096;2023-06-24T07:32:55;4.90;;;2.80;;
30384;SDS011;17181;51.002;4.096;2023-06-24T07:35:21;6.50;;;2.43;;
30384;SDS011;17181;51.002;4.096;2023-06-24T07:37:46;3.13;;;2.40;;
30384;SDS011;17181;51.002;4.096;2023-06-24T07:40:12;4.07;;;2.83;;
30384;SDS011;17181;51.002;4.096;2023-06-24T07:42:38;2.87;;;2.63;;
30384;SDS011;17181;51.002;4.096;2023-06-24T07:45:04;8.80;;;2.50;;
30384;SDS011;17181;51.002;4.096;2023-06-24T07:47:30;6.57;;;2.87;;
30384;SDS011;17181;51.002;4.096;2023-06-24T07:49:57;6.13;;;3.33;;
30384;SDS011;17181;51.002;4.096;2023-06-24T07:52:23;8.57;;;3.33;;
30384;SDS011;17181;51.002;4.096;2023-06-24T07:54:48;5.63;;;2.27;;
30384;SDS011;17181;51.002;4.096;2023-06-24T07:57:14;7.73;;;2.77;;
30384;SDS011;17181;51.002;4.096;2023-06-24T07:59:40;10.67;;;3.30;;
30384;SDS011;17181;51.002;4.096;2023-06-24T08:02:06;5.43;;;3.17;;
30384;SDS011;17181;51.002;4.096;2023-06-24T08:04:32;5.17;;;3.40;;
30384;SDS011;17181;51.002;4.096;2023-06-24T08:06:58;8.03;;;3.30;;
30384;SDS011;17181;51.002;4.096;2023-06-24T08:09:23;4.67;;;2.40;;
30384;SDS011;17181;51.002;4.096;2023-06-24T08:11:49;3.83;;;1.93;;
30384;SDS011;17181;51.002;4.096;2023-06-24T08:14:15;4.47;;;2.57;;
30384;SDS011;17181;51.002;4.096;2023-06-24T08:16:41;4.93;;;2.77;;
30384;SDS011;17181;51.002;4.096;2023-06-24T08:19:06;2.27;;;1.77;;
30384;SDS011;17181;51.002;4.096;2023-06-24T08:21:32;2.83;;;2.00;;
30384;SDS011;17181;51.002;4.096;2023-06-24T08:23:59;3.13;;;2.67;;
30384;SDS011;17181;51.002;4.096;2023-06-24T08:26:25;8.50;;;2.67;;
30384;SDS011;17181;51.002;4.096;2023-06-24T08:28:51;1.97;;;1.10;;
30384;SDS011;17181;51.002;4.096;2023-06-24T08:31:16;5.63;;;2.33;;
30384;SDS011;17181;51.002;4.096;2023-06-24T08:33:45;4.77;;;2.33;;
30384;SDS011;17181;51.002;4.096;2023-06-24T08:36:11;8.03;;;2.80;;
30384;SDS011;17181;51.002;4.096;2023-06-24T08:38:37;1.60;;;1.50;;
30384;SDS011;17181;51.002;4.096;2023-06-24T08:41:03;7.00;;;1.93;;
30384;SDS011;17181;51.002;4.096;2023-06-24T08:43:28;4.20;;;2.43;;
30384;SDS011;17181;51.002;4.096;2023-06-24T08:45:54;2.50;;;1.63;;
30384;SDS011;17181;51.002;4.096;2023-06-24T08:48:20;2.70;;;1.77;;
30384;SDS011;17181;51.002;4.096;2023-06-24T08:50:48;1.27;;;1.13;;
30384;SDS011;17181;51.002;4.096;2023-06-24T08:53:16;2.37;;;1.80;;
30384;SDS011;17181;51.002;4.096;2023-06-24T08:55:44;1.80;;;1.30;;
30384;SDS011;17181;51.002;4.096;2023-06-24T08:58:10;5.13;;;2.03;;
30384;SDS011;17181;51.002;4.096;2023-06-24T09:00:36;2.17;;;1.40;;
30384;SDS011;17181;51.002;4.096;2023-06-24T09:03:02;2.67;;;1.53;;
30384;SDS011;17181;51.002;4.096;2023-06-24T09:05:28;4.37;;;1.70;;
30384;SDS011;17181;51.002;4.096;2023-06-24T09:07:54;1.83;;;1.53;;
30384;SDS011;17181;51.002;4.096;2023-06-24T09:10:35;4.60;;;1.13;;
30384;SDS011;17181;51.002;4.096;2023-06-24T09:13:03;1.93;;;1.67;;
30384;SDS011;17181;51.002;4.096;2023-06-24T09:15:31;5.40;;;2.00;;
30384;SDS011;17181;51.002;4.096;2023-06-24T09:18:01;2.30;;;1.57;;
30384;SDS011;17181;51.002;4.096;2023-06-24T09:20:28;0.37;;;0.33;;
30384;SDS011;17181;51.002;4.096;2023-06-24T09:23:02;2.10;;;0.77;;
30384;SDS011;17181;51.002;4.096;2023-06-24T09:25:29;2.23;;;1.20;;
30384;SDS011;17181;51.002;4.096;2023-06-24T09:27:58;1.83;;;1.70;;
30384;SDS011;17181;51.002;4.096;2023-06-24T09:30:27;2.47;;;1.47;;
30384;SDS011;17181;51.002;4.096;2023-06-24T09:32:53;0.93;;;0.87;;
30384;SDS011;17181;51.002;4.096;2023-06-24T09:35:22;1.03;;;1.03;;
30384;SDS011;17181;51.002;4.096;2023-06-24T09:37:52;1.20;;;1.10;;
30384;SDS011;17181;51.002;4.096;2023-06-24T09:40:20;2.00;;;1.47;;
30384;SDS011;17181;51.002;4.096;2023-06-24T09:42:56;2.33;;;1.63;;
30384;SDS011;17181;51.002;4.096;2023-06-24T09:45:27;1.97;;;1.43;;
30384;SDS011;17181;51.002;4.096;2023-06-24T09:47:54;1.97;;;1.53;;
30384;SDS011;17181;51.002;4.096;2023-06-24T09:50:21;2.03;;;1.37;;
30384;SDS011;17181;51.002;4.096;2023-06-24T09:52:47;1.30;;;1.27;;
30384;SDS011;17181;51.002;4.096;2023-06-24T09:55:14;1.47;;;1.20;;
30384;SDS011;17181;51.002;4.096;2023-06-24T09:57:44;2.67;;;1.30;;
30384;SDS011;17181;51.002;4.096;2023-06-24T10:00:11;1.23;;;0.77;;
30384;SDS011;17181;51.002;4.096;2023-06-24T10:02:40;0.90;;;0.90;;
30384;SDS011;17181;51.002;4.096;2023-06-24T10:05:06;3.27;;;1.00;;
30384;SDS011;17181;51.002;4.096;2023-06-24T10:07:33;1.17;;;1.07;;
30384;SDS011;17181;51.002;4.096;2023-06-24T10:10:01;1.53;;;1.13;;
30384;SDS011;17181;51.002;4.096;2023-06-24T10:12:28;1.87;;;1.20;;
30384;SDS011;17181;51.002;4.096;2023-06-24T10:14:54;1.80;;;1.40;;
30384;SDS011;17181;51.002;4.096;2023-06-24T10:17:20;1.37;;;1.27;;
30384;SDS011;17181;51.002;4.096;2023-06-24T10:19:46;0.87;;;0.80;;
30384;SDS011;17181;51.002;4.096;2023-06-24T10:22:12;1.67;;;0.77;;
30384;SDS011;17181;51.002;4.096;2023-06-24T10:24:39;1.70;;;1.00;;
30384;SDS011;17181;51.002;4.096;2023-06-24T10:27:16;1.33;;;1.23;;
30384;SDS011;17181;51.002;4.096;2023-06-24T10:29:46;0.73;;;0.73;;
30384;SDS011;17181;51.002;4.096;2023-06-24T10:32:21;1.37;;;1.07;;
30384;SDS011;17181;51.002;4.096;2023-06-24T10:34:47;0.73;;;0.65;;
30384;SDS011;17181;51.002;4.096;2023-06-24T10:37:20;3.87;;;1.33;;
30384;SDS011;17181;51.002;4.096;2023-06-24T10:39:50;2.43;;;1.00;;
30384;SDS011;17181;51.002;4.096;2023-06-24T10:47:34;9.20;;;2.03;;
30384;SDS011;17181;51.002;4.096;2023-06-24T10:50:01;1.27;;;1.13;;
30384;SDS011;17181;51.002;4.096;2023-06-24T10:52:26;2.53;;;0.80;;
30384;SDS011;17181;51.002;4.096;2023-06-24T10:54:53;2.05;;;1.27;;
30384;SDS011;17181;51.002;4.096;2023-06-24T10:57:23;2.23;;;0.97;;
30384;SDS011;17181;51.002;4.096;2023-06-24T10:59:50;1.70;;;1.60;;
30384;SDS011;17181;51.002;4.096;2023-06-24T11:02:17;2.33;;;1.50;;
30384;SDS011;17181;51.002;4.096;2023-06-24T11:04:48;0.43;;;0.43;;
30384;SDS011;17181;51.002;4.096;2023-06-24T11:07:19;2.23;;;1.20;;
30384;SDS011;17181;51.002;4.096;2023-06-24T11:09:49;1.52;;;1.42;;
30384;SDS011;17181;51.002;4.096;2023-06-24T11:12:19;2.20;;;1.30;;
30384;SDS011;17181;51.002;4.096;2023-06-24T11:14:50;0.87;;;0.80;;
30384;SDS011;17181;51.002;4.096;2023-06-24T11:17:15;1.45;;;0.90;;
30384;SDS011;17181;51.002;4.096;2023-06-24T11:19:41;1.45;;;0.77;;
30384;SDS011;17181;51.002;4.096;2023-06-24T11:22:09;1.92;;;1.13;;
30384;SDS011;17181;51.002;4.096;2023-06-24T11:24:35;6.22;;;1.05;;
30384;SDS011;17181;51.002;4.096;2023-06-24T11:27:01;1.25;;;1.15;;
30384;SDS011;17181;51.002;4.096;2023-06-24T11:29:29;7.83;;;1.30;;
30384;SDS011;17181;51.002;4.096;2023-06-24T11:31:55;0.95;;;0.43;;
30384;SDS011;17181;51.002;4.096;2023-06-24T11:34:21;0.80;;;0.73;;
30384;SDS011;17181;51.002;4.096;2023-06-24T11:36:47;1.25;;;1.08;;
30384;SDS011;17181;51.002;4.096;2023-06-24T11:39:23;1.42;;;1.17;;
30384;SDS011;17181;51.002;4.096;2023-06-24T11:41:50;0.98;;;0.45;;
30384;SDS011;17181;51.002;4.096;2023-06-24T11:44:20;3.85;;;1.27;;
30384;SDS011;17181;51.002;4.096;2023-06-24T11:46:48;1.08;;;0.77;;
30384;SDS011;17181;51.002;4.096;2023-06-24T11:49:14;1.95;;;1.27;;
30384;SDS011;17181;51.002;4.096;2023-06-24T11:51:47;0.43;;;0.43;;
30384;SDS011;17181;51.002;4.096;2023-06-24T11:54:18;1.15;;;1.15;;
30384;SDS011;17181;51.002;4.096;2023-06-24T11:56:52;2.78;;;1.10;;
30384;SDS011;17181;51.002;4.096;2023-06-24T11:59:22;2.30;;;1.10;;
30384;SDS011;17181;51.002;4.096;2023-06-24T12:01:54;0.77;;;0.32;;
30384;SDS011;17181;51.002;4.096;2023-06-24T12:04:21;2.17;;;0.93;;
30384;SDS011;17181;51.002;4.096;2023-06-24T12:06:52;1.35;;;0.82;;
30384;SDS011;17181;51.002;4.096;2023-06-24T12:09:17;1.17;;;1.08;;
30384;SDS011;17181;51.002;4.096;2023-06-24T12:11:46;0.60;;;0.60;;
30384;SDS011;17181;51.002;4.096;2023-06-24T12:14:12;0.80;;;0.80;;
30384;SDS011;17181;51.002;4.096;2023-06-24T12:16:38;5.75;;;1.20;;
30384;SDS011;17181;51.002;4.096;2023-06-24T12:19:05;2.10;;;0.80;;
30384;SDS011;17181;51.002;4.096;2023-06-24T12:21:31;1.48;;;1.25;;
30384;SDS011;17181;51.002;4.096;2023-06-24T12:23:57;1.27;;;1.17;;
30384;SDS011;17181;51.002;4.096;2023-06-24T12:26:23;3.28;;;1.30;;
30384;SDS011;17181;51.002;4.096;2023-06-24T12:28:48;4.78;;;1.30;;
30384;SDS011;17181;51.002;4.096;2023-06-24T12:31:14;1.50;;;1.30;;
30384;SDS011;17181;51.002;4.096;2023-06-24T12:33:40;2.80;;;1.40;;
30384;SDS011;17181;51.002;4.096;2023-06-24T12:36:06;1.55;;;1.23;;
30384;SDS011;17181;51.002;4.096;2023-06-24T12:38:32;1.67;;;1.50;;
30384;SDS011;17181;51.002;4.096;2023-06-24T12:40:58;1.83;;;0.50;;
30384;SDS011;17181;51.002;4.096;2023-06-24T12:43:23;10.68;;;1.65;;
30384;SDS011;17181;51.002;4.096;2023-06-24T12:45:49;2.13;;;1.60;;
30384;SDS011;17181;51.002;4.096;2023-06-24T12:48:16;1.23;;;1.13;;
30384;SDS011;17181;51.002;4.096;2023-06-24T12:50:42;1.35;;;1.25;;
30384;SDS011;17181;51.002;4.096;2023-06-24T12:53:08;2.47;;;2.10;;
30384;SDS011;17181;51.002;4.096;2023-06-24T12:55:36;3.30;;;1.98;;
30384;SDS011;17181;51.002;4.096;2023-06-24T12:58:01;1.73;;;1.63;;
30384;SDS011;17181;51.002;4.096;2023-06-24T13:00:27;2.38;;;1.92;;
30384;SDS011;17181;51.002;4.096;2023-06-24T13:02:53;3.83;;;1.42;;
30384;SDS011;17181;51.002;4.096;2023-06-24T13:05:19;2.45;;;1.65;;
30384;SDS011;17181;51.002;4.096;2023-06-24T13:07:45;1.40;;;1.30;;
30384;SDS011;17181;51.002;4.096;2023-06-24T13:10:11;2.53;;;1.88;;
30384;SDS011;17181;51.002;4.096;2023-06-24T13:12:36;2.22;;;1.85;;
30384;SDS011;17181;51.002;4.096;2023-06-24T13:15:03;1.65;;;1.50;;
30384;SDS011;17181;51.002;4.096;2023-06-24T13:17:30;1.60;;;1.50;;
30384;SDS011;17181;51.002;4.096;2023-06-24T13:19:56;3.40;;;1.85;;
30384;SDS011;17181;51.002;4.096;2023-06-24T13:22:22;2.55;;;2.00;;
30384;SDS011;17181;51.002;4.096;2023-06-24T13:24:48;1.50;;;1.40;;
30384;SDS011;17181;51.002;4.096;2023-06-24T13:27:14;0.38;;;0.38;;
30384;SDS011;17181;51.002;4.096;2023-06-24T13:29:40;2.53;;;1.42;;
30384;SDS011;17181;51.002;4.096;2023-06-24T13:32:06;8.88;;;1.75;;
30384;SDS011;17181;51.002;4.096;2023-06-24T13:34:32;1.35;;;1.33;;
30384;SDS011;17181;51.002;4.096;2023-06-24T13:36:58;1.77;;;1.67;;
30384;SDS011;17181;51.002;4.096;2023-06-24T13:39:23;1.95;;;1.60;;
30384;SDS011;17181;51.002;4.096;2023-06-24T13:41:49;3.08;;;2.08;;
30384;SDS011;17181;51.002;4.096;2023-06-24T13:44:15;2.38;;;1.60;;
30384;SDS011;17181;51.002;4.096;2023-06-24T13:46:41;1.75;;;1.58;;
30384;SDS011;17181;51.002;4.096;2023-06-24T13:49:07;2.20;;;2.00;;
30384;SDS011;17181;51.002;4.096;2023-06-24T13:51:33;2.42;;;1.77;;
30384;SDS011;17181;51.002;4.096;2023-06-24T13:53:59;2.63;;;1.70;;
30384;SDS011;17181;51.002;4.096;2023-06-24T13:56:26;1.98;;;1.52;;
30384;SDS011;17181;51.002;4.096;2023-06-24T13:58:52;7.82;;;1.73;;
30384;SDS011;17181;51.002;4.096;2023-06-24T14:01:19;6.80;;;1.95;;
30384;SDS011;17181;51.002;4.096;2023-06-24T14:03:45;1.98;;;1.33;;
30384;SDS011;17181;51.002;4.096;2023-06-24T14:06:15;2.30;;;1.30;;
30384;SDS011;17181;51.002;4.096;2023-06-24T14:08:41;2.25;;;1.50;;
30384;SDS011;17181;51.002;4.096;2023-06-24T14:11:07;3.42;;;1.70;;
30384;SDS011;17181;51.002;4.096;2023-06-24T14:13:33;1.50;;;1.40;;
30384;SDS011;17181;51.002;4.096;2023-06-24T14:16:01;1.65;;;1.55;;
30384;SDS011;17181;51.002;4.096;2023-06-24T14:18:27;2.22;;;1.67;;
30384;SDS011;17181;51.002;4.096;2023-06-24T14:20:56;2.53;;;1.77;;
30384;SDS011;17181;51.002;4.096;2023-06-24T14:23:23;1.52;;;1.38;;
30384;SDS011;17181;51.002;4.096;2023-06-24T14:25:51;1.45;;;1.35;;
30384;SDS011;17181;51.002;4.096;2023-06-24T14:28:17;2.72;;;1.65;;
30384;SDS011;17181;51.002;4.096;2023-06-24T14:30:42;1.27;;;1.17;;
30384;SDS011;17181;51.002;4.096;2023-06-24T14:33:09;1.48;;;1.45;;
30384;SDS011;17181;51.002;4.096;2023-06-24T14:35:34;4.07;;;1.42;;
30384;SDS011;17181;51.002;4.096;2023-06-24T14:38:00;1.08;;;1.08;;
30384;SDS011;17181;51.002;4.096;2023-06-24T14:40:26;1.60;;;1.50;;
30384;SDS011;17181;51.002;4.096;2023-06-24T14:42:52;4.32;;;1.95;;
30384;SDS011;17181;51.002;4.096;2023-06-24T14:45:17;3.65;;;1.95;;
30384;SDS011;17181;51.002;4.096;2023-06-24T14:47:43;1.85;;;1.75;;
30384;SDS011;17181;51.002;4.096;2023-06-24T14:50:09;1.95;;;1.85;;
30384;SDS011;17181;51.002;4.096;2023-06-24T14:52:35;1.98;;;1.80;;
30384;SDS011;17181;51.002;4.096;2023-06-24T14:55:01;1.38;;;1.23;;
30384;SDS011;17181;51.002;4.096;2023-06-24T14:57:27;2.08;;;1.55;;
30384;SDS011;17181;51.002;4.096;2023-06-24T14:59:52;3.10;;;1.77;;
30384;SDS011;17181;51.002;4.096;2023-06-24T15:02:18;2.08;;;1.60;;
30384;SDS011;17181;51.002;4.096;2023-06-24T15:04:44;1.75;;;1.52;;
30384;SDS011;17181;51.002;4.096;2023-06-24T15:07:09;1.13;;;1.05;;